createdAt,value
2016-05-30T00:00:31.028Z,65.14
2016-05-30T00:01:31.094Z,65.05
2016-05-30T00:02:31.143Z,65.05
2016-05-30T00:03:31.193Z,65.05
2016-05-30T00:04:31.274Z,65.14
2016-05-30T00:05:31.308Z,64.86
2016-05-30T00:06:31.669Z,64.86
2016-05-30T00:07:31.407Z,65.05
2016-05-30T00:08:31.456Z,65.05
2016-05-30T00:09:31.505Z,65.05
2016-05-30T00:10:31.587Z,64.66
2016-05-30T00:11:31.636Z,65.24
2016-05-30T00:12:31.670Z,64.66
2016-05-30T00:13:31.735Z,64.66
2016-05-30T00:14:31.785Z,65.05
2016-05-30T00:15:31.834Z,64.66
2016-05-30T00:16:31.899Z,64.66
2016-05-30T00:17:31.793Z,65.05
2016-05-30T00:18:31.998Z,64.95
2016-05-30T00:19:32.032Z,64.95
2016-05-30T00:20:32.114Z,65.81
2016-05-30T00:21:32.162Z,65.43
2016-05-30T00:22:32.197Z,66.11
2016-05-30T00:23:32.262Z,65.72
2016-05-30T00:24:32.311Z,65.24
2016-05-30T00:25:32.361Z,64.95
2016-05-30T00:26:32.410Z,65.63
2016-05-30T00:27:32.491Z,65.53
2016-05-30T00:28:32.370Z,65.33
2016-05-30T00:29:32.575Z,65.33
2016-05-30T00:30:32.625Z,65.33
2016-05-30T00:31:32.674Z,65.24
2016-05-30T00:32:32.739Z,65.53
2016-05-30T00:33:32.788Z,65.53
2016-05-30T00:34:32.854Z,65.53
2016-05-30T00:35:32.888Z,65.24
2016-05-30T00:36:32.813Z,65.24
2016-05-30T00:37:32.988Z,65.14
2016-05-30T00:38:33.037Z,65.72
2016-05-30T00:39:32.945Z,65.24
2016-05-30T00:40:33.152Z,65.14
2016-05-30T00:41:33.202Z,65.81
2016-05-30T00:42:33.251Z,65.24
2016-05-30T00:43:33.316Z,65.53
2016-05-30T00:44:33.365Z,65.72
2016-05-30T00:45:33.415Z,65.43
2016-05-30T00:46:33.480Z,65.72
2016-05-30T00:47:33.530Z,66.3
2016-05-30T00:48:33.579Z,65.91
2016-05-30T00:49:33.629Z,65.24
2016-05-30T00:50:33.695Z,65.33
2016-05-30T00:51:33.728Z,65.53
2016-05-30T00:52:33.793Z,65.24
2016-05-30T00:53:33.842Z,65.14
2016-05-30T00:54:33.720Z,65.33
2016-05-30T00:55:33.942Z,65.33
2016-05-30T00:56:33.836Z,65.24
2016-05-30T00:57:34.103Z,65.24
2016-05-30T00:58:34.106Z,65.24
2016-05-30T00:59:34.156Z,65.33
2016-05-30T01:00:34.205Z,65.33
2016-05-30T01:01:34.270Z,65.14
2016-05-30T01:02:34.319Z,65.14
2016-05-30T01:03:34.369Z,65.33
2016-05-30T01:04:34.419Z,65.53
2016-05-30T01:05:34.469Z,65.53
2016-05-30T01:06:34.362Z,65.43
2016-05-30T01:07:34.583Z,65.24
2016-05-30T01:08:34.618Z,65.81
2016-05-30T01:09:34.682Z,64.86
2016-05-30T01:10:34.732Z,65.81
2016-05-30T01:11:34.640Z,65.63
2016-05-30T01:12:34.846Z,64.86
2016-05-30T01:13:34.896Z,65.24
2016-05-30T01:14:34.946Z,64.76
2016-05-30T01:15:34.995Z,65.05
2016-05-30T01:16:35.061Z,64.86
2016-05-30T01:17:35.095Z,65.05
2016-05-30T01:18:35.145Z,64.76
2016-05-30T01:19:35.209Z,64.86
2016-05-30T01:20:35.259Z,65.63
2016-05-30T01:21:35.309Z,64.76
2016-05-30T01:22:35.374Z,64.86
2016-05-30T01:23:35.408Z,64.76
2016-05-30T01:24:35.489Z,64.56
2016-05-30T01:25:35.539Z,65.14
2016-05-30T01:26:35.573Z,65.33
2016-05-30T01:27:35.637Z,64.95
2016-05-30T01:28:35.687Z,64.95
2016-05-30T01:29:35.752Z,64.86
2016-05-30T01:30:35.770Z,65.14
2016-05-30T01:31:35.851Z,65.24
2016-05-30T01:32:35.900Z,65.14
2016-05-30T01:33:35.794Z,65.05
2016-05-30T01:34:35.999Z,65.14
2016-05-30T01:35:36.050Z,65.24
2016-05-30T01:36:35.974Z,64.76
2016-05-30T01:37:36.024Z,64.95
2016-05-30T01:38:36.213Z,64.95
2016-05-30T01:39:36.263Z,65.05
2016-05-30T01:40:36.329Z,65.14
2016-05-30T01:41:36.378Z,65.05
2016-05-30T01:42:36.412Z,64.95
2016-05-30T01:43:36.321Z,64.76
2016-05-30T01:44:36.527Z,64.76
2016-05-30T01:45:36.576Z,64.86
2016-05-30T01:46:36.641Z,64.66
2016-05-30T01:47:36.690Z,64.95
2016-05-30T01:48:36.756Z,64.95
2016-05-30T01:49:36.790Z,64.37
2016-05-30T01:50:36.856Z,64.76
2016-05-30T01:51:37.217Z,65.24
2016-05-30T01:52:36.939Z,64.76
2016-05-30T01:53:36.989Z,65.24
2016-05-30T01:54:37.053Z,64.95
2016-05-30T01:55:37.103Z,65.33
2016-05-30T01:56:37.152Z,65.43
2016-05-30T01:57:37.280Z,65.05
2016-05-30T01:58:37.267Z,64.66
2016-05-30T01:59:37.333Z,65.24
2016-05-30T02:00:37.382Z,64.66
2016-05-30T02:01:37.448Z,64.95
2016-05-30T02:02:37.481Z,64.95
2016-05-30T02:03:37.530Z,64.66
2016-05-30T02:04:37.596Z,64.76
2016-05-30T02:05:37.646Z,65.14
2016-05-30T02:06:37.680Z,64.76
2016-05-30T02:07:38.277Z,64.95
2016-05-30T02:08:37.795Z,64.95
2016-05-30T02:09:37.859Z,65.05
2016-05-30T02:10:37.894Z,64.95
2016-05-30T02:11:37.958Z,65.24
2016-05-30T02:12:38.008Z,65.14
2016-05-30T02:13:38.074Z,65.24
2016-05-30T02:14:38.138Z,64.76
2016-05-30T02:15:38.188Z,64.76
2016-05-30T02:16:38.066Z,65.14
2016-05-30T02:17:38.288Z,64.76
2016-05-30T02:18:38.352Z,64.89
2016-05-30T02:19:38.387Z,64.86
2016-05-30T02:20:38.437Z,64.76
2016-05-30T02:21:39.064Z,64.76
2016-05-30T02:22:38.520Z,64.86
2016-05-30T02:23:38.600Z,65.63
2016-05-30T02:24:38.650Z,64.95
2016-05-30T02:25:38.700Z,65.63
2016-05-30T02:26:38.765Z,64.76
2016-05-30T02:27:38.798Z,64.86
2016-05-30T02:28:38.848Z,64.66
2016-05-30T02:29:38.929Z,64.66
2016-05-30T02:30:38.978Z,64.76
2016-05-30T02:31:39.012Z,64.95
2016-05-30T02:32:39.093Z,64.86
2016-05-30T02:33:38.987Z,65.63
2016-05-30T02:34:39.177Z,64.66
2016-05-30T02:35:39.242Z,64.86
2016-05-30T02:36:39.307Z,64.66
2016-05-30T02:37:39.341Z,65.05
2016-05-30T02:38:39.391Z,64.86
2016-05-30T02:39:39.296Z,65.05
2016-05-30T02:40:39.561Z,64.66
2016-05-30T02:41:39.637Z,64.69
2016-05-30T02:42:39.698Z,64.95
2016-05-30T02:43:39.790Z,64.86
2016-05-30T02:44:39.874Z,65.14
2016-05-30T02:45:39.903Z,64.95
2016-05-30T02:46:39.993Z,64.95
2016-05-30T02:47:40.052Z,64.66
2016-05-30T02:48:40.079Z,64.86
2016-05-30T02:49:40.152Z,64.76
2016-05-30T02:50:40.047Z,64.86
2016-05-30T02:51:40.132Z,64.95
2016-05-30T02:52:40.326Z,65.24
2016-05-30T02:53:40.379Z,64.86
2016-05-30T02:54:40.462Z,65.24
2016-05-30T02:55:40.497Z,65.27
2016-05-30T02:56:40.532Z,65.24
2016-05-30T02:57:40.505Z,64.66
2016-05-30T02:58:40.665Z,64.95
2016-05-30T02:59:40.700Z,64.86
2016-05-30T03:00:40.766Z,64.89
2016-05-30T03:01:40.833Z,65.17
2016-05-30T03:02:40.866Z,64.86
2016-05-30T03:03:40.917Z,64.86
2016-05-30T03:04:40.998Z,64.89
2016-05-30T03:05:41.048Z,65.27
2016-05-30T03:06:40.941Z,64.86
2016-05-30T03:07:41.147Z,64.66
2016-05-30T03:08:41.211Z,64.76
2016-05-30T03:09:41.231Z,64.95
2016-05-30T03:10:41.296Z,64.86
2016-05-30T03:11:41.361Z,64.86
2016-05-30T03:12:41.395Z,64.76
2016-05-30T03:13:41.459Z,64.79
2016-05-30T03:14:41.525Z,64.76
2016-05-30T03:15:41.403Z,65.05
2016-05-30T03:16:41.625Z,65.63
2016-05-30T03:17:41.658Z,65.63
2016-05-30T03:18:41.739Z,65.63
2016-05-30T03:19:41.788Z,65.75
2016-05-30T03:20:41.822Z,65.72
2016-05-30T03:21:42.466Z,65.53
2016-05-30T03:22:41.937Z,65.24
2016-05-30T03:23:41.986Z,65.56
2016-05-30T03:24:42.036Z,65.43
2016-05-30T03:25:42.102Z,65.53
2016-05-30T03:26:42.119Z,65.05
2016-05-30T03:27:42.184Z,65.27
2016-05-30T03:28:42.250Z,65.43
2016-05-30T03:29:42.315Z,65.47
2016-05-30T03:30:42.365Z,65.53
2016-05-30T03:31:42.414Z,65.81
2016-05-30T03:32:42.464Z,65.81
2016-05-30T03:33:42.513Z,65.63
2016-05-30T03:34:42.406Z,65.63
2016-05-30T03:35:42.612Z,65.05
2016-05-30T03:36:42.928Z,65.53
2016-05-30T03:37:42.728Z,65.08
2016-05-30T03:38:42.777Z,65.43
2016-05-30T03:39:42.859Z,65.81
2016-05-30T03:40:42.891Z,65.05
2016-05-30T03:41:42.926Z,64.76
2016-05-30T03:42:42.992Z,64.86
2016-05-30T03:43:43.040Z,64.86
2016-05-30T03:44:43.106Z,64.89
2016-05-30T03:45:43.156Z,65.05
2016-05-30T03:46:43.205Z,65.17
2016-05-30T03:47:43.270Z,65.66
2016-05-30T03:48:43.319Z,65.81
2016-05-30T03:49:43.353Z,65.43
2016-05-30T03:50:43.419Z,65.33
2016-05-30T03:51:43.484Z,65.24
2016-05-30T03:52:43.502Z,65.24
2016-05-30T03:53:43.599Z,65.53
2016-05-30T03:54:43.616Z,65.14
2016-05-30T03:55:43.697Z,65.24
2016-05-30T03:56:43.732Z,65.63
2016-05-30T03:57:43.828Z,65.66
2016-05-30T03:58:43.846Z,65.53
2016-05-30T03:59:43.740Z,65.72
2016-05-30T04:00:43.946Z,65.47
2016-05-30T04:01:43.995Z,65.33
2016-05-30T04:02:44.060Z,65.33
2016-05-30T04:03:44.093Z,65.24
2016-05-30T04:04:44.160Z,65.63
2016-05-30T04:05:44.209Z,65.05
2016-05-30T04:06:44.243Z,65.14
2016-05-30T04:07:44.167Z,65.24
2016-05-30T04:08:44.357Z,65.56
2016-05-30T04:09:44.423Z,65.24
2016-05-30T04:10:44.473Z,65.33
2016-05-30T04:11:44.523Z,65.08
2016-05-30T04:12:44.572Z,65.37
2016-05-30T04:13:44.652Z,65.05
2016-05-30T04:14:44.515Z,65.24
2016-05-30T04:15:44.736Z,65.27
2016-05-30T04:16:44.801Z,65.33
2016-05-30T04:17:44.851Z,65.43
2016-05-30T04:18:44.900Z,65.53
2016-05-30T04:19:44.966Z,65.43
2016-05-30T04:20:45.000Z,65.33
2016-05-30T04:21:45.236Z,65.43
2016-05-30T04:22:45.114Z,65.14
2016-05-30T04:23:45.164Z,65.33
2016-05-30T04:24:45.229Z,65.53
2016-05-30T04:25:45.107Z,65.33
2016-05-30T04:26:45.327Z,65.33
2016-05-30T04:27:45.377Z,65.24
2016-05-30T04:28:45.443Z,65.47
2016-05-30T04:29:45.476Z,65.33
2016-05-30T04:30:45.541Z,65.43
2016-05-30T04:31:45.591Z,65.53
2016-05-30T04:32:45.626Z,65.14
2016-05-30T04:33:45.690Z,65.33
2016-05-30T04:34:45.724Z,65.53
2016-05-30T04:35:45.804Z,65.05
2016-05-30T04:36:46.354Z,65.37
2016-05-30T04:37:45.905Z,65.17
2016-05-30T04:38:45.970Z,65.37
2016-05-30T04:39:46.019Z,65.43
2016-05-30T04:40:46.068Z,65.14
2016-05-30T04:41:46.118Z,65.63
2016-05-30T04:42:46.027Z,65.43
2016-05-30T04:43:46.218Z,65.33
2016-05-30T04:44:46.267Z,65.81
2016-05-30T04:45:46.331Z,65.72
2016-05-30T04:46:46.367Z,65.66
2016-05-30T04:47:46.431Z,65.72
2016-05-30T04:48:46.512Z,65.81
2016-05-30T04:49:46.547Z,65.56
2016-05-30T04:50:46.595Z,65.63
2016-05-30T04:51:47.130Z,65.43
2016-05-30T04:52:46.711Z,65.75
2016-05-30T04:53:46.744Z,65.53
2016-05-30T04:54:46.810Z,65.91
2016-05-30T04:55:46.859Z,65.91
2016-05-30T04:56:46.893Z,66.01
2016-05-30T04:57:47.036Z,65.53
2016-05-30T04:58:47.008Z,65.72
2016-05-30T04:59:46.932Z,65.91
2016-05-30T05:00:47.122Z,65.85
2016-05-30T05:01:47.172Z,65.66
2016-05-30T05:02:47.252Z,65.72
2016-05-30T05:03:47.287Z,65.63
2016-05-30T05:04:47.368Z,65.43
2016-05-30T05:05:47.245Z,65.43
2016-05-30T05:06:47.310Z,65.37
2016-05-30T05:07:47.501Z,65.53
2016-05-30T05:08:47.534Z,65.63
2016-05-30T05:09:47.615Z,65.95
2016-05-30T05:10:47.649Z,65.24
2016-05-30T05:11:47.730Z,65.66
2016-05-30T05:12:47.764Z,65.75
2016-05-30T05:13:47.814Z,65.63
2016-05-30T05:14:47.878Z,65.72
2016-05-30T05:15:47.912Z,65.81
2016-05-30T05:16:48.119Z,65.91
2016-05-30T05:17:48.028Z,66.01
2016-05-30T05:18:48.061Z,66.33
2016-05-30T05:19:48.111Z,65.72
2016-05-30T05:20:48.192Z,66.3
2016-05-30T05:21:48.070Z,66.2
2016-05-30T05:22:48.276Z,66.2
2016-05-30T05:23:48.356Z,66.01
2016-05-30T05:24:48.391Z,66.01
2016-05-30T05:25:48.455Z,66.01
2016-05-30T05:26:48.489Z,66.04
2016-05-30T05:27:48.539Z,64.95
2016-05-30T05:28:48.620Z,63.89
2016-05-30T05:29:48.685Z,64.47
2016-05-30T05:30:48.702Z,64.98
2016-05-30T05:31:48.785Z,64.95
2016-05-30T05:32:48.833Z,63.7
2016-05-30T05:33:48.868Z,63.41
2016-05-30T05:34:48.935Z,63.12
2016-05-30T05:35:49.001Z,64.18
2016-05-30T05:36:49.018Z,63.5
2016-05-30T05:37:49.115Z,63.5
2016-05-30T05:38:49.149Z,63.7
2016-05-30T05:39:49.183Z,63.79
2016-05-30T05:40:49.249Z,64.28
2016-05-30T05:41:49.298Z,64.18
2016-05-30T05:42:49.176Z,64.76
2016-05-30T05:43:49.397Z,64.28
2016-05-30T05:44:49.462Z,64.18
2016-05-30T05:45:49.511Z,64.37
2016-05-30T05:46:49.546Z,64.28
2016-05-30T05:47:49.611Z,63.79
2016-05-30T05:48:49.661Z,64.43
2016-05-30T05:49:49.726Z,65.01
2016-05-30T05:50:49.759Z,65.59
2016-05-30T05:51:49.808Z,65.11
2016-05-30T05:52:49.889Z,64.43
2016-05-30T05:53:49.940Z,65.01
2016-05-30T05:54:49.817Z,65.01
2016-05-30T05:55:50.070Z,64.82
2016-05-30T05:56:50.166Z,65.69
2016-05-30T05:57:50.169Z,65.59
2016-05-30T05:58:50.188Z,65.88
2016-05-30T05:59:50.253Z,66.07
2016-05-30T06:00:50.286Z,66.55
2016-05-30T06:01:50.352Z,66.46
2016-05-30T06:02:50.402Z,66.65
2016-05-30T06:03:50.466Z,66.07
2016-05-30T06:04:50.532Z,66.07
2016-05-30T06:05:50.566Z,66.27
2016-05-30T06:06:50.584Z,65.98
2016-05-30T06:07:50.665Z,65.78
2016-05-30T06:08:50.715Z,66.17
2016-05-30T06:09:50.779Z,66.55
2016-05-30T06:10:50.829Z,65.88
2016-05-30T06:11:50.879Z,66.07
2016-05-30T06:12:50.912Z,66.17
2016-05-30T06:13:50.993Z,65.98
2016-05-30T06:14:51.028Z,65.01
2016-05-30T06:15:51.108Z,66.27
2016-05-30T06:16:51.142Z,66.36
2016-05-30T06:17:51.036Z,66.75
2016-05-30T06:18:51.256Z,67.13
2016-05-30T06:19:51.291Z,66.55
2016-05-30T06:20:51.356Z,67.13
2016-05-30T06:21:51.421Z,66.46
2016-05-30T06:22:51.439Z,66.55
2016-05-30T06:23:51.489Z,66.07
2016-05-30T06:24:51.554Z,65.98
2016-05-30T06:25:51.603Z,65.98
2016-05-30T06:26:51.638Z,65.59
2016-05-30T06:27:51.718Z,65.69
2016-05-30T06:28:51.783Z,65.2
2016-05-30T06:29:51.646Z,65.11
2016-05-30T06:30:51.882Z,65.5
2016-05-30T06:31:51.932Z,65.5
2016-05-30T06:32:51.966Z,65.69
2016-05-30T06:33:52.016Z,65.69
2016-05-30T06:34:52.082Z,65.2
2016-05-30T06:35:52.130Z,64.92
2016-05-30T06:36:52.727Z,64.53
2016-05-30T06:37:52.245Z,65.59
2016-05-30T06:38:52.295Z,65.69
2016-05-30T06:39:52.173Z,65.2
2016-05-30T06:40:52.409Z,65.78
2016-05-30T06:41:52.304Z,65.11
2016-05-30T06:42:52.509Z,65.59
2016-05-30T06:43:52.543Z,65.59
2016-05-30T06:44:52.451Z,65.5
2016-05-30T06:45:52.657Z,64.82
2016-05-30T06:46:52.535Z,64.92
2016-05-30T06:47:52.756Z,65.78
2016-05-30T06:48:52.823Z,64.73
2016-05-30T06:49:52.872Z,65.01
2016-05-30T06:50:52.905Z,65.2
2016-05-30T06:51:52.987Z,64.92
2016-05-30T06:52:53.036Z,65.01
2016-05-30T06:53:52.928Z,64.92
2016-05-30T06:54:53.120Z,65.2
2016-05-30T06:55:56.528Z,64.63
2016-05-30T06:56:53.266Z,65.11
2016-05-30T06:57:53.331Z,65.11
2016-05-30T06:58:53.333Z,64.73
2016-05-30T06:59:53.399Z,64.63
2016-05-30T07:00:53.447Z,65.01
2016-05-30T07:01:53.497Z,64.34
2016-05-30T07:02:53.404Z,64.34
2016-05-30T07:03:53.610Z,64.34
2016-05-30T07:04:53.644Z,64.43
2016-05-30T07:05:56.665Z,64.73
2016-05-30T07:06:53.805Z,65.01
2016-05-30T07:07:53.824Z,65.01
2016-05-30T07:08:53.873Z,65.11
2016-05-30T07:09:53.907Z,64.82
2016-05-30T07:10:55.491Z,65.11
2016-05-30T07:11:54.022Z,65.2
2016-05-30T07:12:54.056Z,65.11
2016-05-30T07:13:54.104Z,64.92
2016-05-30T07:14:55.751Z,64.73
2016-05-30T07:15:54.220Z,65.3
2016-05-30T07:16:54.270Z,65.11
2016-05-30T07:17:54.335Z,64.43
2016-05-30T07:18:54.385Z,64.82
2016-05-30T07:19:54.450Z,65.11
2016-05-30T07:20:54.484Z,65.3
2016-05-30T07:21:54.392Z,64.82
2016-05-30T07:22:54.614Z,64.92
2016-05-30T07:23:54.648Z,65.2
2016-05-30T07:24:54.697Z,65.01
2016-05-30T07:25:54.794Z,65.01
2016-05-30T07:26:54.797Z,64.82
2016-05-30T07:27:54.847Z,65.78
2016-05-30T07:28:54.911Z,65.01
2016-05-30T07:29:56.042Z,65.4
2016-05-30T07:30:54.995Z,65.2
2016-05-30T07:31:55.091Z,65.4
2016-05-30T07:32:55.110Z,65.3
2016-05-30T07:33:55.190Z,65.4
2016-05-30T07:34:55.661Z,65.4
2016-05-30T07:35:55.274Z,65.59
2016-05-30T07:36:56.074Z,65.5
2016-05-30T07:37:55.404Z,65.2
2016-05-30T07:38:55.438Z,65.3
2016-05-30T07:39:55.487Z,64.92
2016-05-30T07:40:56.868Z,65.01
2016-05-30T07:41:55.587Z,65.11
2016-05-30T07:42:55.652Z,65.4
2016-05-30T07:43:55.717Z,65.5
2016-05-30T07:44:57.660Z,65.78
2016-05-30T07:45:55.816Z,65.01
2016-05-30T07:46:55.865Z,64.82
2016-05-30T07:47:55.915Z,65.11
2016-05-30T07:48:55.981Z,65.01
2016-05-30T07:49:56.015Z,64.63
2016-05-30T07:50:56.079Z,64.43
2016-05-30T07:51:55.989Z,65.3
2016-05-30T07:52:56.163Z,64.73
2016-05-30T07:53:56.212Z,64.82
2016-05-30T07:54:56.294Z,65.01
2016-05-30T07:55:56.312Z,65.59
2016-05-30T07:56:56.206Z,65.78
2016-05-30T07:57:56.489Z,64.73
2016-05-30T07:58:56.508Z,64.73
2016-05-30T07:59:56.541Z,65.69
2016-05-30T08:00:56.591Z,65.78
2016-05-30T08:01:56.641Z,65.01
2016-05-30T08:02:56.722Z,64.92
2016-05-30T08:03:56.739Z,65.01
2016-05-30T08:04:56.789Z,65.01
2016-05-30T08:05:56.855Z,65.11
2016-05-30T08:06:57.216Z,64.34
2016-05-30T08:07:56.938Z,64.43
2016-05-30T08:08:56.863Z,64.73
2016-05-30T08:09:57.069Z,64.92
2016-05-30T08:10:57.118Z,64.43
2016-05-30T08:11:57.183Z,65.11
2016-05-30T08:12:58.563Z,65.2
2016-05-30T08:13:57.266Z,65.11
2016-05-30T08:14:57.316Z,65.69
2016-05-30T08:15:57.382Z,64.92
2016-05-30T08:16:57.416Z,64.82
2016-05-30T08:17:59.202Z,65.11
2016-05-30T08:18:57.530Z,65.2
2016-05-30T08:19:57.579Z,65.5
2016-05-30T08:20:57.614Z,65.4
2016-05-30T08:21:57.710Z,65.2
2016-05-30T08:22:58.857Z,65.5
2016-05-30T08:23:57.654Z,65.3
2016-05-30T08:24:57.842Z,65.78
2016-05-30T08:25:57.908Z,65.4
2016-05-30T08:26:57.958Z,65.3
2016-05-30T08:27:58.870Z,65.01
2016-05-30T08:28:58.057Z,65.59
2016-05-30T08:29:57.966Z,64.73
2016-05-30T08:30:58.156Z,64.92
2016-05-30T08:31:58.205Z,64.82
2016-05-30T08:33:00.758Z,65.4
2016-05-30T08:33:58.339Z,65.11
2016-05-30T08:34:58.357Z,65.11
2016-05-30T08:35:58.438Z,64.82
2016-05-30T08:36:58.503Z,65.78
2016-05-30T08:38:00.583Z,65.11
2016-05-30T08:38:58.586Z,64.92
2016-05-30T08:39:58.621Z,65.59
2016-05-30T08:40:58.702Z,65.2
2016-05-30T08:41:58.736Z,65.5
2016-05-30T08:42:58.800Z,65.3
2016-05-30T08:43:58.850Z,65.69
2016-05-30T08:44:58.899Z,65.11
2016-05-30T08:45:58.949Z,64.15
2016-05-30T08:46:59.029Z,64.82
2016-05-30T08:47:59.064Z,65.01
2016-05-30T08:48:59.098Z,64.82
2016-05-30T08:49:59.163Z,64.92
2016-05-30T08:50:59.213Z,65.3
2016-05-30T08:51:59.590Z,65.3
2016-05-30T08:53:00.342Z,65.4
2016-05-30T08:53:59.361Z,65.4
2016-05-30T08:54:59.442Z,65.88
2016-05-30T08:55:59.476Z,65.3
2016-05-30T08:56:59.354Z,65.3
2016-05-30T08:58:02.263Z,65.2
2016-05-30T08:58:59.640Z,65.3
2016-05-30T08:59:59.674Z,65.5
2016-05-30T09:00:59.724Z,65.69
2016-05-30T09:01:59.805Z,65.4
2016-05-30T09:03:02.136Z,65.5
2016-05-30T09:03:59.904Z,65.2
2016-05-30T09:04:59.938Z,65.3
2016-05-30T09:05:59.831Z,66.17
2016-05-30T09:07:00.021Z,65.69
2016-05-30T09:08:00.103Z,65.2
2016-05-30T09:08:59.996Z,65.88
2016-05-30T09:10:00.216Z,65.88
2016-05-30T09:11:00.266Z,66.17
2016-05-30T09:12:00.144Z,66.17
2016-05-30T09:13:00.382Z,65.78
2016-05-30T09:14:00.430Z,66.46
2016-05-30T09:15:00.480Z,66.07
2016-05-30T09:16:00.529Z,66.65
2016-05-30T09:17:00.579Z,66.55
2016-05-30T09:18:00.645Z,66.55
2016-05-30T09:19:00.679Z,66.07
2016-05-30T09:20:00.729Z,66.46
2016-05-30T09:21:00.637Z,66.55
2016-05-30T09:22:00.843Z,66.27
2016-05-30T09:23:00.720Z,65.3
2016-05-30T09:24:00.957Z,65.11
2016-05-30T09:25:00.851Z,65.3
2016-05-30T09:26:01.042Z,66.17
2016-05-30T09:27:01.122Z,65.69
2016-05-30T09:28:01.155Z,66.07
2016-05-30T09:29:01.221Z,65.98
2016-05-30T09:30:01.255Z,66.17
2016-05-30T09:31:01.305Z,66.17
2016-05-30T09:32:01.386Z,66.07
2016-05-30T09:33:01.420Z,66.36
2016-05-30T09:34:01.453Z,66.46
2016-05-30T09:35:01.534Z,66.65
2016-05-30T09:36:01.583Z,67.03
2016-05-30T09:37:01.618Z,66.27
2016-05-30T09:38:01.699Z,66.36
2016-05-30T09:39:01.747Z,66.36
2016-05-30T09:40:01.797Z,66.65
2016-05-30T09:41:01.691Z,66.94
2016-05-30T09:42:01.880Z,66.27
2016-05-30T09:43:01.947Z,66.36
2016-05-30T09:44:01.996Z,66.07
2016-05-30T09:45:02.045Z,66.75
2016-05-30T09:46:02.096Z,67.42
2016-05-30T09:47:02.160Z,67.13
2016-05-30T09:48:02.193Z,66.65
2016-05-30T09:49:02.088Z,66.85
2016-05-30T09:50:02.324Z,66.36
2016-05-30T09:51:02.359Z,66.65
2016-05-30T09:52:03.095Z,66.75
2016-05-30T09:53:02.489Z,66.27
2016-05-30T09:54:02.522Z,66.94
2016-05-30T09:55:02.556Z,66.75
2016-05-30T09:56:02.637Z,66.85
2016-05-30T09:57:02.687Z,66.85
2016-05-30T09:58:02.783Z,66.36
2016-05-30T09:59:02.801Z,66.69
2016-05-30T10:00:02.851Z,66.94
2016-05-30T10:01:02.886Z,67.07
2016-05-30T10:02:02.950Z,66.94
2016-05-30T10:03:03.016Z,66.65
2016-05-30T10:04:03.034Z,66.94
2016-05-30T10:05:03.100Z,66.97
2016-05-30T10:06:03.164Z,67.07
2016-05-30T10:07:04.152Z,66.97
2016-05-30T10:08:03.280Z,66.88
2016-05-30T10:09:03.298Z,67.07
2016-05-30T10:10:03.206Z,66.88
2016-05-30T10:11:03.428Z,67.07
2016-05-30T10:12:03.306Z,67.07
2016-05-30T10:13:03.511Z,67.07
2016-05-30T10:14:03.592Z,66.69
2016-05-30T10:15:03.627Z,66.69
2016-05-30T10:16:03.676Z,67.36
2016-05-30T10:17:03.741Z,66.78
2016-05-30T10:18:03.790Z,66.59
2016-05-30T10:19:03.855Z,66.49
2016-05-30T10:20:03.890Z,66.39
2016-05-30T10:21:03.923Z,66.97
2016-05-30T10:22:04.020Z,66.39
2016-05-30T10:23:04.054Z,67.36
2016-05-30T10:24:04.088Z,66.97
2016-05-30T10:25:04.168Z,66.69
2016-05-30T10:26:04.078Z,67.36
2016-05-30T10:27:04.284Z,66.97
2016-05-30T10:28:04.333Z,66.69
2016-05-30T10:29:04.382Z,66.78
2016-05-30T10:30:04.417Z,66.88
2016-05-30T10:31:04.481Z,66.69
2016-05-30T10:32:04.515Z,67.16
2016-05-30T10:33:04.581Z,66.59
2016-05-30T10:34:04.630Z,66.78
2016-05-30T10:35:04.664Z,67.16
2016-05-30T10:36:04.745Z,67.36
2016-05-30T10:37:04.811Z,67.26
2016-05-30T10:38:04.828Z,67.55
2016-05-30T10:39:04.925Z,66.78
2016-05-30T10:40:04.958Z,66.69
2016-05-30T10:41:04.994Z,66.69
2016-05-30T10:42:05.058Z,66.59
2016-05-30T10:43:05.124Z,67.16
2016-05-30T10:44:05.142Z,67.16
2016-05-30T10:45:05.066Z,67.36
2016-05-30T10:46:05.287Z,66.88
2016-05-30T10:47:05.322Z,66.97
2016-05-30T10:48:05.371Z,66.88
2016-05-30T10:49:05.420Z,66.78
2016-05-30T10:50:05.470Z,67.07
2016-05-30T10:51:05.536Z,66.88
2016-05-30T10:52:05.632Z,66.69
2016-05-30T10:53:05.463Z,67.16
2016-05-30T10:54:05.700Z,67.07
2016-05-30T10:55:05.734Z,67.36
2016-05-30T10:56:05.784Z,67.26
2016-05-30T10:57:05.865Z,67.26
2016-05-30T10:58:05.960Z,68.13
2016-05-30T10:59:05.979Z,67.84
2016-05-30T11:00:05.997Z,67.46
2016-05-30T11:01:06.078Z,66.88
2016-05-30T11:02:06.112Z,67.46
2016-05-30T11:03:06.020Z,68.42
2016-05-30T11:04:06.055Z,67.55
2016-05-30T11:05:06.276Z,67.94
2016-05-30T11:06:06.325Z,67.94
2016-05-30T11:07:06.734Z,68.13
2016-05-30T11:08:06.441Z,68.04
2016-05-30T11:09:06.474Z,68.61
2016-05-30T11:10:06.539Z,67.84
2016-05-30T11:11:06.574Z,68.71
2016-05-30T11:12:06.623Z,68.13
2016-05-30T11:13:06.688Z,68.23
2016-05-30T11:14:06.738Z,68.13
2016-05-30T11:15:06.788Z,68.52
2016-05-30T11:16:06.868Z,68.13
2016-05-30T11:17:06.902Z,68.04
2016-05-30T11:18:06.936Z,68.23
2016-05-30T11:19:07.017Z,68.13
2016-05-30T11:20:07.066Z,68.42
2016-05-30T11:21:07.116Z,68.32
2016-05-30T11:22:07.369Z,68.23
2016-05-30T11:23:07.216Z,67.94
2016-05-30T11:24:07.280Z,68.04
2016-05-30T11:25:07.346Z,67.94
2016-05-30T11:26:07.364Z,67.94
2016-05-30T11:27:07.429Z,68.61
2016-05-30T11:28:07.337Z,68.52
2016-05-30T11:29:07.529Z,68.52
2016-05-30T11:30:07.578Z,68.99
2016-05-30T11:31:07.643Z,68.8
2016-05-30T11:32:07.676Z,68.9
2016-05-30T11:33:07.742Z,68.61
2016-05-30T11:34:07.807Z,68.71
2016-05-30T11:35:07.857Z,68.9
2016-05-30T11:36:07.906Z,68.32
2016-05-30T11:37:08.394Z,68.71
2016-05-30T11:38:08.005Z,68.32
2016-05-30T11:39:08.056Z,68.23
2016-05-30T11:40:08.152Z,68.32
2016-05-30T11:41:08.185Z,68.71
2016-05-30T11:42:08.328Z,69.29
2016-05-30T11:43:08.285Z,68.99
2016-05-30T11:44:08.334Z,68.9
2016-05-30T11:45:08.398Z,68.32
2016-05-30T11:46:08.313Z,68.32
2016-05-30T11:47:08.555Z,68.8
2016-05-30T11:48:08.609Z,68.8
2016-05-30T11:49:08.709Z,68.99
2016-05-30T11:50:08.754Z,68.99
2016-05-30T11:51:08.827Z,68.99
2016-05-30T11:52:08.743Z,68.84
2016-05-30T11:53:08.925Z,69.19
2016-05-30T11:54:08.982Z,68.8
2016-05-30T11:55:09.050Z,68.9
2016-05-30T11:56:09.102Z,68.71
2016-05-30T11:57:09.139Z,68.71
2016-05-30T11:58:09.269Z,68.99
2016-05-30T11:59:09.275Z,68.9
2016-05-30T12:00:09.326Z,68.52
2016-05-30T12:01:09.408Z,68.99
2016-05-30T12:02:09.428Z,69.09
2016-05-30T12:03:09.338Z,68.61
2016-05-30T12:04:09.529Z,68.71
2016-05-30T12:05:09.580Z,68.99
2016-05-30T12:06:09.661Z,68.52
2016-05-30T12:07:10.164Z,68.99
2016-05-30T12:08:09.823Z,69.09
2016-05-30T12:09:09.826Z,68.99
2016-05-30T12:10:09.876Z,69.19
2016-05-30T12:11:09.910Z,69.48
2016-05-30T12:12:09.975Z,69.57
2016-05-30T12:13:10.040Z,69.48
2016-05-30T12:14:10.073Z,69.38
2016-05-30T12:15:10.123Z,69.38
2016-05-30T12:16:10.173Z,69.48
2016-05-30T12:17:10.239Z,70.09
2016-05-30T12:18:10.320Z,69.87
2016-05-30T12:19:10.353Z,69.67
2016-05-30T12:20:10.403Z,69.87
2016-05-30T12:21:10.453Z,70.44
2016-05-30T12:22:10.705Z,70.44
2016-05-30T12:23:10.567Z,69.23
2016-05-30T12:24:10.617Z,69.48
2016-05-30T12:25:10.650Z,69.8
2016-05-30T12:26:10.716Z,69.96
2016-05-30T12:27:10.766Z,69.9
2016-05-30T12:28:10.830Z,69.48
2016-05-30T12:29:10.880Z,69.38
2016-05-30T12:30:10.914Z,69.32
2016-05-30T12:31:10.824Z,69.67
2016-05-30T12:32:11.044Z,69.87
2016-05-30T12:33:11.079Z,69.38
2016-05-30T12:34:10.987Z,69.71
2016-05-30T12:35:11.193Z,69.61
2016-05-30T12:36:11.071Z,69.48
2016-05-30T12:37:11.152Z,69.61
2016-05-30T12:38:11.201Z,69.61
2016-05-30T12:39:11.391Z,69.8
2016-05-30T12:40:11.473Z,69.61
2016-05-30T12:41:11.521Z,69.77
2016-05-30T12:42:11.540Z,69.8
2016-05-30T12:43:11.606Z,69.67
2016-05-30T12:44:11.671Z,69.8
2016-05-30T12:45:11.704Z,69.61
2016-05-30T12:46:11.770Z,69.9
2016-05-30T12:47:11.819Z,69.51
2016-05-30T12:48:11.916Z,69.19
2016-05-30T12:49:11.934Z,70.38
2016-05-30T12:50:11.984Z,69.51
2016-05-30T12:51:12.033Z,69.61
2016-05-30T12:52:12.083Z,69.61
2016-05-30T12:53:12.133Z,69.61
2016-05-30T12:54:12.197Z,69.71
2016-05-30T12:55:12.247Z,70
2016-05-30T12:56:15.047Z,69.9